Página principal
METAR-TAF:

METAR-TAF

Aeroportos :

Aeroporto Internacional Netaji Subhas Chandra Bose

Calcutá, Índia

latitude: 22-39N, longitude: 088-27E, altura: 4 m

Observação actual do tempo

O boletim foi feito há 11 minutos, às 09:30 UTC
Vento 8 kt de su-sudeste
Temperatura 36°C
Humidade 60%
Pressão 1004 hPa
Visibilidade: 4000 m
Poucas nuvensa uma altura de 2000 ft
bruma

METAR: VECC 260930Z 16008KT 4000 HZ FEW020 36/27 Q1004 NOSIG

Hora: 15:11 (09:41 UTC)

Previsão

O boletim foi feito há 1 hora e 41 minutos, às 08:00 UTC
Previsão válida de 26 às 09 UTC a 26 às 18 UTC
Vento 8 kt de sul
Visibilidade: 4000 m
Poucas nuvensa uma altura de 2000 ft
bruma

TAF: VECC 260800Z 2609/2618 17008KT 4000 HZ FEW020

Observações e previsões do tempo de mais de 4000 aeroportos (mensagens METAR e TAF).

As estações disponíveis são os pontos amarelos e vermelhos sobre o mapa.

Mova o rato sobre o mapa para ver o nome da estação.

Depois clique no ponto para visualizar as observações e previsões meteorológicas.

Para alterar o mapa : clique nos botões verdes com uma cruz preta para aumentar o zoom; no botão verde com uma pitada de zoom; ou nas setas verdes para mapas adjacentes.


METAR-TAF: